Time;durP1;ratioP1;P1;durP2;ratioP2;P2;SDS_P1;SDS_P2;PMS_P1;PMS_P2;Temp;Humidity;BMP_temperature;BMP_pressure;BME280_temperature;BME280_humidity;BME280_pressure;Samples;Min_cycle;Max_cycle;Signal;HPM_P1;HPM_P2
2022/04/08 00:02:01;;;;;;;13.30;3.98;;;;;;;10.61;62.11;98824.45;1709196;80;21061;-67
2022/04/08 00:04:30;;;;;;;16.75;4.25;;;;;;;10.59;62.26;98818.06;1703629;81;21080;-67
2022/04/08 00:07:00;;;;;;;9.75;4.22;;;;;;;10.57;62.35;98822.94;1723895;82;21120;-67
2022/04/08 00:09:27;;;;;;;15.68;4.22;;;;;;;10.56;62.46;98820.00;1707538;81;21481;-67
2022/04/08 00:11:55;;;;;;;11.97;3.75;;;;;;;10.55;62.56;98815.75;1714362;81;21031;-67
2022/04/08 00:14:23;;;;;;;13.98;4.05;;;;;;;10.53;62.65;98821.41;1709258;81;21142;-67
2022/04/08 00:16:51;;;;;;;13.55;4.90;;;;;;;10.53;62.72;98819.28;1709965;81;21090;-67
2022/04/08 00:19:19;;;;;;;13.62;4.30;;;;;;;10.51;62.76;98821.45;1695334;83;21110;-66
2022/04/08 00:21:50;;;;;;;14.05;3.90;;;;;;;10.48;62.79;98817.50;1696461;83;21026;-67
2022/04/08 00:24:17;;;;;;;15.40;4.15;;;;;;;10.45;62.88;98811.97;1695199;83;21042;-67
2022/04/08 00:26:46;;;;;;;14.20;4.00;;;;;;;10.39;62.96;98807.81;1705647;81;22069;-67
2022/04/08 00:29:14;;;;;;;9.95;3.47;;;;;;;10.35;63.14;98803.63;1708374;81;21126;-66
2022/04/08 00:31:41;;;;;;;15.13;3.25;;;;;;;10.30;63.23;98807.74;1713409;81;21426;-67
2022/04/08 00:34:09;;;;;;;11.10;3.60;;;;;;;10.26;63.44;98806.73;1705672;81;21081;-67
2022/04/08 00:36:37;;;;;;;13.72;3.80;;;;;;;10.22;63.59;98807.84;1705609;81;21023;-67
2022/04/08 00:39:05;;;;;;;11.20;3.42;;;;;;;10.19;63.75;98809.77;1703269;81;21549;-66
2022/04/08 00:41:33;;;;;;;11.57;3.98;;;;;;;10.17;63.88;98797.80;1704691;81;20991;-67
2022/04/08 00:44:00;;;;;;;10.78;3.77;;;;;;;10.13;64.00;98796.83;1706666;81;21085;-67
2022/04/08 00:46:29;;;;;;;13.25;4.58;;;;;;;10.08;64.12;98793.17;1711719;80;21022;-67
2022/04/08 00:48:56;;;;;;;10.48;3.80;;;;;;;10.05;64.27;98796.44;1715416;81;21085;-67
2022/04/08 00:51:24;;;;;;;11.03;3.33;;;;;;;10.02;64.41;98797.03;1717214;81;21137;-67
2022/04/08 00:53:52;;;;;;;11.38;3.80;;;;;;;10.00;64.55;98795.22;1704969;81;21545;-67
2022/04/08 00:56:21;;;;;;;14.65;4.22;;;;;;;9.97;64.67;98788.32;1702671;81;21027;-68
2022/04/08 00:58:48;;;;;;;16.60;3.85;;;;;;;9.93;64.87;98790.80;1707205;81;21061;-67
2022/04/08 01:01:15;;;;;;;15.90;4.00;;;;;;;9.89;65.11;98787.69;1704646;81;21125;-66
2022/04/08 01:03:43;;;;;;;10.48;3.42;;;;;;;9.83;65.28;98795.77;1708219;81;21776;-67
2022/04/08 01:06:11;;;;;;;10.23;3.42;;;;;;;9.80;65.40;98789.69;1708835;81;21094;-67
2022/04/08 01:08:39;;;;;;;8.28;3.20;;;;;;;9.68;65.36;98784.62;1702037;81;21046;-67
2022/04/08 01:11:08;;;;;;;12.80;3.50;;;;;;;9.48;65.38;98779.89;1707375;81;21070;-67
2022/04/08 01:13:36;;;;;;;12.93;3.62;;;;;;;9.26;65.62;98777.06;1708806;81;21387;-67
2022/04/08 01:16:06;;;;;;;11.35;3.50;;;;;;;9.10;65.88;98771.18;1708131;81;21698;-66
2022/04/08 01:18:33;;;;;;;11.55;4.42;;;;;;;9.06;66.09;98770.19;1710224;81;21034;-66
2022/04/08 01:21:05;;;;;;;10.53;3.77;;;;;;;8.99;66.29;98761.23;1708562;81;21572;-67
2022/04/08 01:23:35;;;;;;;11.88;4.70;;;;;;;8.93;66.53;98761.84;1716666;81;21541;-67
2022/04/08 01:26:08;;;;;;;11.80;3.92;;;;;;;8.89;66.81;98755.52;1702625;81;21087;-67
2022/04/08 01:28:35;;;;;;;15.48;4.00;;;;;;;8.82;67.05;98749.78;1710980;81;21295;-67
2022/04/08 01:31:02;;;;;;;13.32;4.08;;;;;;;8.77;67.32;98751.72;1712578;81;21027;-67
2022/04/08 01:33:30;;;;;;;13.48;3.75;;;;;;;8.71;67.61;98744.88;1708213;81;21023;-67
2022/04/08 01:35:57;;;;;;;12.40;3.90;;;;;;;8.65;67.90;98733.51;1708743;81;21125;-67
2022/04/08 01:38:24;;;;;;;16.70;5.10;;;;;;;8.64;68.12;98737.27;1712711;81;21030;-67
2022/04/08 01:40:52;;;;;;;11.88;3.08;;;;;;;8.66;68.28;98726.58;1696718;81;21185;-66
2022/04/08 01:43:20;;;;;;;13.03;4.28;;;;;;;8.66;68.43;98729.79;1684228;83;21047;-65
2022/04/08 01:45:48;;;;;;;12.40;4.20;;;;;;;8.66;68.62;98729.79;1675481;83;21530;-66
2022/04/08 01:48:16;;;;;;;10.95;4.15;;;;;;;8.68;68.75;98724.41;1706962;83;21045;-66
2022/04/08 01:50:43;;;;;;;14.18;3.60;;;;;;;8.69;68.83;98726.02;1689225;82;20966;-66
2022/04/08 01:53:13;;;;;;;12.60;4.22;;;;;;;8.76;68.88;98726.19;1699328;82;21285;-66
2022/04/08 01:55:44;;;;;;;11.70;4.05;;;;;;;8.80;68.88;98720.53;1699986;82;21466;-66
2022/04/08 01:58:13;;;;;;;;;;;;;;;8.83;68.85;98723.95;1689917;84;21086;-66
2022/04/08 02:00:40;;;;;;;13.18;3.80;;;;;;;8.84;68.82;98722.31;1704677;83;20139;-66
2022/04/08 02:03:09;;;;;;;12.73;3.77;;;;;;;8.86;68.81;98716.71;1685105;83;21007;-67
2022/04/08 02:05:37;;;;;;;11.88;4.08;;;;;;;8.89;68.79;98714.25;1705986;81;21256;-67
2022/04/08 02:08:07;;;;;;;13.13;4.37;;;;;;;8.92;68.83;98707.02;1685180;83;20960;-67
2022/04/08 02:10:36;;;;;;;13.43;4.10;;;;;;;8.94;68.90;98705.38;1707725;83;21054;-67
2022/04/08 02:13:06;;;;;;;12.10;4.47;;;;;;;8.98;68.94;98702.92;1686167;82;21093;-66
2022/04/08 02:15:35;;;;;;;9.10;4.00;;;;;;;9.01;68.98;98705.80;1690725;82;21059;-67
2022/04/08 02:18:02;;;;;;;9.35;3.98;;;;;;;9.03;68.97;98704.19;1728952;81;21142;-67
2022/04/08 02:20:33;;;;;;;11.68;4.05;;;;;;;9.05;68.95;98709.48;1694778;82;21091;-68
2022/04/08 02:23:00;;;;;;;11.35;4.05;;;;;;;9.06;68.89;98704.39;1677528;81;21054;-67
2022/04/08 02:25:28;;;;;;;9.58;3.98;;;;;;;9.04;68.87;98703.88;1715298;81;21027;-67
2022/04/08 02:27:56;;;;;;;12.33;4.50;;;;;;;9.00;68.92;98701.56;1687018;82;21132;-67
2022/04/08 02:30:25;;;;;;;9.98;3.70;;;;;;;8.99;68.98;98705.86;1688110;83;21250;-67
2022/04/08 02:32:53;;;;;;;13.78;3.95;;;;;;;8.98;69.12;98708.25;1690726;82;21911;-66
2022/04/08 02:35:20;;;;;;;11.48;4.15;;;;;;;8.96;69.17;98712.55;1693731;82;21104;-68
2022/04/08 02:37:48;;;;;;;11.28;3.95;;;;;;;8.96;69.28;98705.11;1709400;83;21062;-68
2022/04/08 02:40:15;;;;;;;15.32;4.35;;;;;;;8.96;69.42;98713.88;1692485;82;21053;-66
2022/04/08 02:42:44;;;;;;;11.53;4.15;;;;;;;8.99;69.45;98712.52;1714684;83;21805;-67
2022/04/08 02:45:11;;;;;;;11.50;3.98;;;;;;;9.00;69.48;98712.21;1702802;82;21044;-65
2022/04/08 02:47:43;;;;;;;10.38;4.08;;;;;;;9.02;69.48;98707.94;1703743;82;21603;-67
2022/04/08 02:50:12;;;;;;;13.72;4.03;;;;;;;9.04;69.47;98705.22;1702280;82;21062;-66
2022/04/08 02:52:39;;;;;;;11.65;3.62;;;;;;;9.06;69.48;98700.40;1691771;81;21553;-66
2022/04/08 02:55:08;;;;;;;11.10;3.95;;;;;;;9.09;69.52;98700.36;1689837;82;21096;-67
2022/04/08 02:57:45;;;;;;;17.67;4.15;;;;;;;9.10;69.57;98699.27;1685752;84;21062;-68
2022/04/08 03:00:11;;;;;;;9.73;3.30;;;;;;;9.11;69.63;98704.84;1690350;82;21115;-68
2022/04/08 03:02:40;;;;;;;12.78;4.65;;;;;;;9.11;69.67;98696.33;1702804;81;21633;-67
2022/04/08 03:05:08;;;;;;;11.20;3.87;;;;;;;9.16;69.69;98700.77;1686564;82;21054;-68
2022/04/08 03:07:36;;;;;;;12.95;4.53;;;;;;;9.16;69.67;98695.44;1682358;82;21091;-66
2022/04/08 03:10:06;;;;;;;11.85;4.55;;;;;;;9.15;69.63;98697.31;1708192;83;21524;-66
2022/04/08 03:12:35;;;;;;;8.58;3.72;;;;;;;9.16;69.59;98694.11;1708098;82;21518;-68
2022/04/08 03:15:04;;;;;;;12.40;4.47;;;;;;;9.18;69.59;98697.80;1682065;83;21446;-67
2022/04/08 03:17:32;;;;;;;11.00;4.08;;;;;;;9.17;69.57;98691.69;1706411;82;21098;-67
2022/04/08 03:19:59;;;;;;;13.38;4.15;;;;;;;9.13;69.51;98685.38;1691185;82;21240;-67
2022/04/08 03:22:26;;;;;;;12.43;4.55;;;;;;;9.08;69.52;98687.59;1704002;82;21067;-67
2022/04/08 03:24:54;;;;;;;14.70;4.30;;;;;;;9.06;69.63;98684.42;1711605;81;21549;-68
2022/04/08 03:27:22;;;;;;;12.43;4.60;;;;;;;9.08;69.67;98682.27;1701481;82;21049;-67
2022/04/08 03:29:50;;;;;;;11.70;4.90;;;;;;;9.01;69.70;98673.84;1685441;84;21514;-68
2022/04/08 03:32:17;;;;;;;12.98;5.12;;;;;;;8.96;69.79;98681.93;1704225;82;21210;-67
2022/04/08 03:34:44;;;;;;;12.43;4.97;;;;;;;8.97;69.85;98679.51;1688995;83;21075;-67
2022/04/08 03:37:16;;;;;;;12.68;4.55;;;;;;;8.91;69.87;98686.78;1704731;82;21116;-67
2022/04/08 03:39:42;;;;;;;14.80;3.92;;;;;;;8.84;70.04;98681.59;1704265;82;21007;-67
2022/04/08 03:42:10;;;;;;;10.58;4.00;;;;;;;8.78;70.21;98672.89;1704467;82;21051;-67
2022/04/08 03:44:37;;;;;;;10.18;3.70;;;;;;;8.71;70.48;98673.02;1681277;84;21156;-67
2022/04/08 03:47:06;;;;;;;9.23;3.55;;;;;;;8.63;70.82;98665.16;1702754;82;21160;-68
2022/04/08 03:49:36;;;;;;;10.15;3.92;;;;;;;8.55;71.20;98667.92;1703121;82;21061;-67
2022/04/08 03:52:09;;;;;;;10.00;3.87;;;;;;;8.50;71.58;98670.67;1677489;83;21047;-67
2022/04/08 03:54:39;;;;;;;10.20;3.62;;;;;;;8.52;71.87;98680.47;1693816;82;21023;-67
2022/04/08 03:57:06;;;;;;;9.70;3.65;;;;;;;8.58;72.06;98687.30;1677294;84;21124;-66
2022/04/08 03:59:34;;;;;;;12.95;3.92;;;;;;;8.62;72.20;98688.84;1699887;82;21047;-67
2022/04/08 04:02:05;;;;;;;11.55;3.95;;;;;;;8.70;72.34;98689.53;1690843;82;21520;-66
2022/04/08 04:04:32;;;;;;;13.62;4.72;;;;;;;8.83;72.38;98692.78;1682046;82;21490;-67
2022/04/08 04:06:59;;;;;;;10.98;4.20;;;;;;;8.99;72.37;98697.33;1724435;82;21510;-67
2022/04/08 04:09:29;;;;;;;12.68;3.83;;;;;;;9.14;72.29;98686.94;1675652;84;21072;-67
2022/04/08 04:11:56;;;;;;;12.63;4.10;;;;;;;9.25;72.12;98687.03;1678168;84;21545;-67
2022/04/08 04:14:24;;;;;;;14.38;4.05;;;;;;;9.36;71.97;98683.09;1700408;81;21620;-66
2022/04/08 04:16:53;;;;;;;13.85;4.50;;;;;;;9.43;71.78;98686.70;1687808;82;21057;-66
2022/04/08 04:19:22;;;;;;;10.13;4.00;;;;;;;9.52;71.59;98682.27;1688212;82;21062;-66
2022/04/08 04:21:50;;;;;;;12.30;4.60;;;;;;;9.57;71.41;98691.48;1691017;82;21224;-67
2022/04/08 04:24:18;;;;;;;13.13;4.03;;;;;;;9.65;71.23;98691.36;1688728;82;21502;-69
2022/04/08 04:26:45;;;;;;;10.80;4.10;;;;;;;9.69;70.99;98698.22;1686757;82;21069;-68
2022/04/08 04:29:12;;;;;;;11.35;4.80;;;;;;;9.73;70.82;98700.53;1696131;82;21102;-68
2022/04/08 04:31:40;;;;;;;11.18;4.97;;;;;;;9.79;70.72;98698.02;1694060;82;21508;-67
2022/04/08 04:34:07;;;;;;;13.78;4.90;;;;;;;9.85;70.60;98699.50;1718832;81;21791;-67
2022/04/08 04:36:36;;;;;;;12.63;5.22;;;;;;;9.90;70.46;98684.71;1739277;81;21010;-67
2022/04/08 04:39:03;;;;;;;11.35;4.50;;;;;;;9.93;70.28;98678.00;1704847;82;21090;-69
2022/04/08 04:41:32;;;;;;;10.95;4.92;;;;;;;9.95;70.11;98677.95;1691725;82;21094;-68
2022/04/08 04:43:59;;;;;;;13.53;4.47;;;;;;;9.95;69.96;98666.50;1677189;84;21181;-68
2022/04/08 04:46:27;;;;;;;10.60;4.25;;;;;;;9.97;69.87;98670.45;1691654;81;21231;-67
2022/04/08 04:48:55;;;;;;;11.45;4.42;;;;;;;10.01;69.76;98677.31;1716080;81;20996;-67
2022/04/08 04:51:23;;;;;;;11.30;4.72;;;;;;;10.04;69.67;98664.16;1678689;81;21054;-68
2022/04/08 04:53:50;;;;;;;14.18;4.03;;;;;;;10.03;69.50;98663.90;1682104;84;21020;-67
2022/04/08 04:56:18;;;;;;;12.78;4.95;;;;;;;9.95;69.43;98659.28;1690223;82;21061;-68
2022/04/08 04:58:46;;;;;;;11.43;3.90;;;;;;;9.82;69.46;98666.76;1688595;84;20995;-68
2022/04/08 05:01:13;;;;;;;12.65;4.97;;;;;;;9.76;69.65;98662.61;1674853;84;21047;-67
2022/04/08 05:03:44;;;;;;;10.50;4.67;;;;;;;9.71;69.72;98670.18;1678263;83;20971;-68
2022/04/08 05:06:11;;;;;;;11.63;4.72;;;;;;;9.75;69.87;98677.04;1682018;81;21098;-68
2022/04/08 05:08:38;;;;;;;14.50;4.80;;;;;;;9.82;69.93;98682.20;1679633;82;20987;-67
2022/04/08 05:11:06;;;;;;;12.25;4.40;;;;;;;9.89;69.89;98673.81;1703165;82;22080;-68
2022/04/08 05:13:33;;;;;;;13.45;5.62;;;;;;;9.96;69.83;98656.85;1698672;83;21178;-67
2022/04/08 05:16:03;;;;;;;13.68;4.78;;;;;;;10.06;69.75;98663.85;1707931;82;21610;-67
2022/04/08 05:18:31;;;;;;;13.10;5.10;;;;;;;10.14;69.59;98663.70;1688889;81;21026;-68
2022/04/08 05:21:00;;;;;;;12.18;4.45;;;;;;;10.20;69.34;98646.47;1686484;82;20980;-68
2022/04/08 05:23:29;;;;;;;15.13;4.60;;;;;;;10.20;69.10;98639.80;1679507;82;21278;-68
2022/04/08 05:25:58;;;;;;;11.22;4.75;;;;;;;10.23;69.05;98639.20;1682843;82;20950;-69
2022/04/08 05:28:26;;;;;;;12.07;4.87;;;;;;;10.30;68.90;98647.09;1679665;82;21672;-68
2022/04/08 05:30:53;;;;;;;13.38;5.10;;;;;;;10.38;68.76;98640.23;1689054;82;21086;-67
2022/04/08 05:33:21;;;;;;;13.48;4.90;;;;;;;10.45;68.64;98641.93;1686576;82;21192;-67
2022/04/08 05:35:48;;;;;;;16.65;5.53;;;;;;;10.56;68.46;98647.81;1680475;84;21640;-68
2022/04/08 05:38:16;;;;;;;11.83;5.08;;;;;;;10.63;68.28;98642.05;1682690;82;21038;-68
2022/04/08 05:40:43;;;;;;;17.00;5.80;;;;;;;10.68;68.10;98645.39;1686586;82;21006;-68
2022/04/08 05:43:11;;;;;;;11.25;5.10;;;;;;;10.79;67.86;98648.59;1690811;82;21046;-67
2022/04/08 05:45:38;;;;;;;15.38;5.25;;;;;;;10.86;67.54;98650.31;1685466;82;21094;-67
2022/04/08 05:48:07;;;;;;;14.65;4.80;;;;;;;10.91;67.33;98640.82;1683289;82;21318;-68
2022/04/08 05:50:34;;;;;;;13.40;5.30;;;;;;;10.97;67.11;98632.92;1692596;82;21154;-67
2022/04/08 05:53:02;;;;;;;12.90;4.92;;;;;;;11.06;66.90;98628.97;1691761;82;21061;-67
2022/04/08 05:55:29;;;;;;;13.98;5.47;;;;;;;11.13;66.71;98617.84;1685966;83;21097;-67
2022/04/08 05:57:56;;;;;;;12.65;5.00;;;;;;;11.21;66.49;98614.41;1681691;84;20971;-68
2022/04/08 06:00:24;;;;;;;9.83;4.30;;;;;;;11.28;66.24;98602.16;1701979;83;21323;-68
2022/04/08 06:02:55;;;;;;;8.90;4.22;;;;;;;11.38;66.00;98593.08;1689451;83;21035;-67
2022/04/08 06:05:23;;;;;;;12.28;4.85;;;;;;;11.47;65.71;98597.91;1696681;82;21059;-68
2022/04/08 06:07:53;;;;;;;11.15;4.20;;;;;;;11.57;65.49;98600.06;1703643;83;21199;-68
2022/04/08 06:10:23;;;;;;;13.45;5.42;;;;;;;11.72;65.38;98607.10;1707162;83;20991;-67
2022/04/08 06:12:51;;;;;;;15.55;6.10;;;;;;;11.90;65.08;98604.48;1685546;83;21196;-68
2022/04/08 06:15:18;;;;;;;12.13;5.25;;;;;;;12.07;64.86;98601.80;1683017;83;21133;-67
2022/04/08 06:17:47;;;;;;;11.60;5.05;;;;;;;12.25;64.52;98596.48;1707824;81;21088;-67
2022/04/08 06:20:16;;;;;;;12.28;4.83;;;;;;;12.40;63.76;98602.14;1690781;83;21023;-68
2022/04/08 06:22:43;;;;;;;11.55;4.83;;;;;;;12.49;63.17;98594.64;1684148;83;21075;-67
2022/04/08 06:25:13;;;;;;;16.25;5.50;;;;;;;12.54;62.77;98597.95;1691043;83;21658;-67
2022/04/08 06:27:41;;;;;;;12.33;5.05;;;;;;;12.59;62.48;98607.14;1693441;81;21046;-67
2022/04/08 06:30:10;;;;;;;15.50;5.78;;;;;;;12.66;62.22;98607.44;1688171;82;21039;-68
2022/04/08 06:32:39;;;;;;;12.75;5.47;;;;;;;12.74;61.89;98610.44;1691102;82;21050;-68
2022/04/08 06:35:06;;;;;;;13.32;5.55;;;;;;;12.80;61.56;98608.61;1706647;83;21501;-66
2022/04/08 06:37:34;;;;;;;14.13;5.08;;;;;;;12.85;61.43;98601.73;1680644;84;21703;-68
2022/04/08 06:40:08;;;;;;;13.33;4.63;;;;;;;12.89;61.16;98597.30;1709676;83;21020;-69
2022/04/08 06:42:35;;;;;;;10.93;4.43;;;;;;;12.93;61.05;98601.45;1686946;82;21383;-67
2022/04/08 06:45:04;;;;;;;14.43;4.90;;;;;;;12.99;60.86;98605.55;1705906;83;21280;-68
2022/04/08 06:47:33;;;;;;;14.73;4.53;;;;;;;13.05;60.72;98606.16;1686906;83;21306;-68
2022/04/08 06:50:02;;;;;;;15.77;4.90;;;;;;;13.10;60.50;98596.06;1682935;84;21209;-68
2022/04/08 06:52:29;;;;;;;14.17;5.10;;;;;;;13.14;60.23;98590.84;1669024;84;21253;-67
2022/04/08 06:54:58;;;;;;;13.80;4.60;;;;;;;13.17;60.01;98594.22;1695482;84;21341;-66
2022/04/08 06:57:25;;;;;;;14.83;4.77;;;;;;;13.20;59.87;98593.58;1676151;83;21296;-67
2022/04/08 06:59:52;;;;;;;14.47;4.97;;;;;;;13.20;59.63;98584.20;1706857;81;21183;-68
2022/04/08 07:02:20;;;;;;;12.93;4.67;;;;;;;13.22;59.60;98588.66;1709124;83;21271;-67
2022/04/08 07:04:48;;;;;;;15.37;5.70;;;;;;;13.29;59.52;98596.23;1700912;81;21120;-67
2022/04/08 07:07:15;;;;;;;11.70;5.33;;;;;;;13.36;59.22;98611.29;1683666;82;21179;-68
2022/04/08 07:09:44;;;;;;;12.97;4.70;;;;;;;13.44;59.10;98605.64;1714583;83;21697;-67
2022/04/08 07:12:13;;;;;;;14.07;5.17;;;;;;;13.53;59.12;98605.05;1682638;83;21237;-67
2022/04/08 07:14:40;;;;;;;12.70;4.70;;;;;;;13.63;58.90;98614.06;1705122;83;21779;-67
2022/04/08 07:17:07;;;;;;;13.73;4.73;;;;;;;13.72;58.54;98621.52;1682929;84;21596;-68
2022/04/08 07:19:36;;;;;;;13.00;4.10;;;;;;;13.82;58.23;98623.03;1676088;82;21360;-68
2022/04/08 07:22:04;;;;;;;11.53;4.27;;;;;;;13.95;58.11;98614.48;1702328;82;21284;-67
2022/04/08 07:24:31;;;;;;;10.97;3.80;;;;;;;14.11;57.80;98612.78;1701811;82;21377;-67
2022/04/08 07:26:58;;;;;;;12.70;4.33;;;;;;;14.25;57.48;98613.33;1703081;83;21953;-67
2022/04/08 07:29:27;;;;;;;12.80;4.70;;;;;;;14.42;57.27;98604.89;1690367;82;38249;-67
2022/04/08 07:31:54;;;;;;;13.67;4.10;;;;;;;14.59;56.95;98607.44;1693096;82;21244;-68
2022/04/08 07:34:21;;;;;;;13.20;4.93;;;;;;;14.78;56.45;98606.94;1687722;82;21932;-68
2022/04/08 07:36:48;;;;;;;10.67;4.37;;;;;;;14.99;56.04;98612.24;1691598;84;21455;-67
2022/04/08 07:39:16;;;;;;;13.80;4.30;;;;;;;15.16;55.60;98606.66;1684781;84;21362;-68
2022/04/08 07:41:44;;;;;;;13.77;4.97;;;;;;;15.35;55.19;98606.12;1688125;82;21179;-68
2022/04/08 07:44:12;;;;;;;13.23;4.33;;;;;;;15.51;54.61;98608.92;1685127;84;21247;-69
2022/04/08 07:46:39;;;;;;;14.27;4.43;;;;;;;15.67;54.11;98607.72;1690083;82;21366;-68
2022/04/08 07:49:07;;;;;;;9.97;3.93;;;;;;;15.78;53.66;98602.65;1685205;82;21433;-66
2022/04/08 07:51:34;;;;;;;12.37;4.13;;;;;;;15.91;52.75;98610.36;1688857;82;21491;-67
2022/04/08 07:54:02;;;;;;;13.13;3.80;;;;;;;16.00;51.56;98608.11;1685358;82;21520;-68
2022/04/08 07:56:33;;;;;;;9.53;3.37;;;;;;;16.07;50.96;98617.74;1690871;84;21563;-66
2022/04/08 07:58:59;;;;;;;11.37;3.23;;;;;;;16.08;50.28;98612.00;1691357;82;21576;-68
2022/04/08 08:01:26;;;;;;;10.93;3.77;;;;;;;16.08;50.28;98612.00;1685094;82;21574;-68
2022/04/08 08:03:55;;;;;;;12.50;3.50;;;;;;;16.05;50.40;98613.25;1685800;83;21930;-68
2022/04/08 08:06:23;;;;;;;12.27;3.60;;;;;;;16.09;50.31;98614.94;1689636;84;21707;-69
2022/04/08 08:08:55;;;;;;;11.37;3.57;;;;;;;16.13;49.55;98615.03;1689331;82;21727;-68
2022/04/08 08:11:23;;;;;;;10.27;3.37;;;;;;;16.10;49.28;98611.11;1692835;84;21757;-67
2022/04/08 08:13:51;;;;;;;11.20;3.17;;;;;;;16.15;49.23;98613.55;1689125;82;21777;-68
2022/04/08 08:16:19;;;;;;;10.67;3.37;;;;;;;16.21;48.29;98596.59;1688158;83;22246;-67
2022/04/08 08:18:49;;;;;;;11.60;3.67;;;;;;;16.21;48.29;98596.59;1706482;82;21754;-67
2022/04/08 08:21:16;;;;;;;10.93;3.50;;;;;;;16.21;48.77;98603.89;1686729;82;21657;-67
2022/04/08 08:23:45;;;;;;;11.83;3.77;;;;;;;16.33;48.92;98598.47;1681871;84;22376;-66
2022/04/08 08:26:13;;;;;;;10.93;3.83;;;;;;;16.46;47.88;98592.47;1683441;83;22232;-67
2022/04/08 08:28:40;;;;;;;10.10;3.43;;;;;;;16.51;47.56;98591.64;1705407;83;21715;-67
2022/04/08 08:31:08;;;;;;;10.37;3.40;;;;;;;16.54;47.39;98595.00;1685981;82;21801;-67
2022/04/08 08:33:35;;;;;;;9.97;3.20;;;;;;;16.59;47.11;98588.02;1688205;82;22256;-67
2022/04/08 08:36:05;;;;;;;8.03;2.70;;;;;;;16.60;46.66;98581.49;1722538;83;22131;-67
2022/04/08 08:38:32;;;;;;;10.07;3.20;;;;;;;16.57;46.60;98583.53;1680031;84;21653;-68
2022/04/08 08:40:59;;;;;;;10.40;3.17;;;;;;;16.59;46.69;98582.63;1669362;84;21787;-67
2022/04/08 08:43:27;;;;;;;11.80;3.97;;;;;;;16.62;45.91;98584.64;1694351;83;21758;-69
2022/04/08 08:45:57;;;;;;;12.43;3.40;;;;;;;16.65;46.42;98578.56;1695000;83;21749;-69
2022/04/08 08:48:25;;;;;;;10.03;3.17;;;;;;;16.81;45.87;98584.55;1724676;83;22131;-68
2022/04/08 08:50:55;;;;;;;10.80;3.37;;;;;;;16.97;45.89;98572.44;1704491;82;22260;-68
2022/04/08 08:53:24;;;;;;;11.60;2.87;;;;;;;17.14;45.29;98568.60;1704428;82;22213;-68
2022/04/08 08:55:53;;;;;;;10.47;3.20;;;;;;;17.24;44.27;98551.34;1703191;84;21800;-69
2022/04/08 08:58:20;;;;;;;9.80;3.13;;;;;;;17.24;44.27;98551.34;1704764;82;21007;-69
2022/04/08 09:00:47;;;;;;;12.20;3.30;;;;;;;17.26;44.34;98546.93;1704494;82;21066;-69
2022/04/08 09:03:14;;;;;;;8.80;2.87;;;;;;;17.32;44.70;98544.96;1698272;82;20947;-68
2022/04/08 09:05:44;;;;;;;8.67;3.00;;;;;;;17.49;44.90;98537.62;1675835;84;21256;-68
2022/04/08 09:08:16;;;;;;;9.43;2.93;;;;;;;17.68;43.70;98520.68;1676378;84;20984;-68
2022/04/08 09:10:48;;;;;;;7.93;2.60;;;;;;;17.83;43.31;98521.20;1699982;84;21549;-68
2022/04/08 09:13:20;;;;;;;12.20;3.80;;;;;;;18.02;43.31;98519.86;1700052;82;21058;-68
2022/04/08 09:15:59;;;;;;;12.37;3.30;;;;;;;18.20;42.78;98506.70;1693826;84;21174;-68
2022/04/08 09:18:31;;;;;;;8.77;3.17;;;;;;;18.36;42.40;98503.11;1687860;83;21848;-68
2022/04/08 09:21:00;;;;;;;10.37;3.73;;;;;;;18.55;42.94;98519.86;1690896;82;21400;-67
2022/04/08 09:23:30;;;;;;;;;;;;;;;18.67;42.47;98518.34;1687802;84;21189;-68
2022/04/08 09:26:02;;;;;;;11.97;3.40;;;;;;;18.72;42.27;98519.41;1688043;82;20175;-67
2022/04/08 09:28:37;;;;;;;9.33;3.30;;;;;;;18.75;41.43;98517.34;1688555;84;21015;-68
2022/04/08 09:31:04;;;;;;;9.23;3.10;;;;;;;18.77;40.47;98521.05;1689591;82;21263;-68
2022/04/08 09:33:32;;;;;;;10.23;3.73;;;;;;;18.73;39.93;98525.05;1691692;84;21023;-67
2022/04/08 09:36:01;;;;;;;9.60;3.27;;;;;;;18.64;39.45;98516.36;1682798;84;21588;-69
2022/04/08 09:38:34;;;;;;;9.20;3.33;;;;;;;18.51;39.70;98525.98;1702705;83;21049;-68
2022/04/08 09:41:07;;;;;;;9.13;2.93;;;;;;;18.44;39.81;98528.56;1684750;83;21007;-68
2022/04/08 09:43:36;;;;;;;10.43;3.30;;;;;;;18.38;39.48;98534.62;1714671;83;21150;-68
2022/04/08 09:46:21;;;;;;;9.33;3.07;;;;;;;18.24;39.51;98531.87;1690190;83;21098;-68
2022/04/08 09:48:50;;;;;;;11.47;2.87;;;;;;;18.14;40.16;98533.02;1685850;84;21137;-67
2022/04/08 09:51:23;;;;;;;10.47;3.20;;;;;;;18.21;40.18;98531.80;1694522;84;21071;-67
2022/04/08 09:53:57;;;;;;;8.47;3.37;;;;;;;18.18;39.98;98528.45;1715793;83;21140;-67
2022/04/08 09:56:29;;;;;;;9.17;3.40;;;;;;;18.20;40.27;98526.97;1679890;83;21107;-68
2022/04/08 09:59:10;;;;;;;9.60;3.62;;;;;;;18.15;39.27;98519.72;1695719;84;20955;-67
2022/04/08 10:01:37;;;;;;;8.98;3.30;;;;;;;18.02;39.01;98534.71;1674971;84;20992;-68
2022/04/08 10:04:07;;;;;;;9.90;3.43;;;;;;;17.89;39.15;98546.80;1677586;84;21132;-68
2022/04/08 10:06:36;;;;;;;8.60;3.37;;;;;;;17.75;39.60;98539.72;1676377;84;21070;-68
2022/04/08 10:09:13;;;;;;;10.13;3.40;;;;;;;17.69;40.02;98529.77;1711894;83;21003;-68
2022/04/08 10:12:01;;;;;;;8.43;3.53;;;;;;;17.70;40.43;98518.39;1682185;83;21526;-68
2022/04/08 10:14:41;;;;;;;9.27;3.60;;;;;;;17.76;40.40;98509.69;1705820;83;21065;-67
2022/04/08 10:17:09;;;;;;;9.97;3.83;;;;;;;17.79;40.42;98511.68;1687970;82;21007;-68
2022/04/08 10:19:37;;;;;;;10.83;4.07;;;;;;;17.81;40.38;98521.56;1687641;84;21027;-66
2022/04/08 10:22:06;;;;;;;9.87;4.47;;;;;;;17.84;40.50;98525.48;1688837;83;21228;-68
2022/04/08 10:24:33;;;;;;;8.77;3.80;;;;;;;17.95;40.62;98528.39;1658967;84;21035;-68
2022/04/08 10:27:05;;;;;;;10.13;4.40;;;;;;;17.99;40.34;98530.59;1670486;83;21049;-68
2022/04/08 10:29:33;;;;;;;9.03;3.93;;;;;;;18.03;40.13;98547.64;1683049;83;21458;-68
2022/04/08 10:32:14;;;;;;;15.47;7.30;;;;;;;18.08;40.60;98543.89;1686293;83;21007;-68
2022/04/08 10:34:41;;;;;;;12.70;5.80;;;;;;;18.10;40.21;98533.50;1724738;83;21183;-68
2022/04/08 10:37:27;;;;;;;9.57;4.47;;;;;;;18.05;39.60;98531.88;1693236;84;21062;-68
2022/04/08 10:40:04;;;;;;;9.67;4.10;;;;;;;18.00;40.35;98531.60;1686795;84;21087;-68
2022/04/08 10:42:34;;;;;;;8.90;4.30;;;;;;;17.98;39.76;98520.94;1665364;83;21026;-68
2022/04/08 10:45:14;;;;;;;10.73;4.67;;;;;;;17.94;40.41;98543.05;1687960;83;21034;-68
2022/04/08 10:47:48;;;;;;;8.50;4.53;;;;;;;17.92;40.31;98541.26;1683784;82;21263;-67
2022/04/08 10:50:30;;;;;;;11.27;5.17;;;;;;;17.66;40.40;98528.34;1699431;83;21416;-67
2022/04/08 10:53:12;;;;;;;11.13;5.07;;;;;;;17.51;41.45;98517.81;1704124;82;21431;-67
2022/04/08 10:55:50;;;;;;;10.70;4.93;;;;;;;17.53;41.28;98546.00;1692428;84;21521;-67
2022/04/08 10:58:35;;;;;;;10.27;4.30;;;;;;;17.50;41.68;98544.00;1693859;82;21063;-67
2022/04/08 11:01:25;;;;;;;7.63;4.67;;;;;;;17.62;41.81;98544.47;1684568;83;21205;-68
2022/04/08 11:04:04;;;;;;;10.90;5.10;;;;;;;17.73;41.71;98539.28;1684248;84;21070;-67
2022/04/08 11:06:31;;;;;;;10.20;5.00;;;;;;;17.80;41.70;98544.86;1684548;82;21135;-67
2022/04/08 11:09:12;;;;;;;10.80;6.67;;;;;;;17.81;41.44;98559.95;1690639;83;21074;-67
2022/04/08 11:11:43;;;;;;;9.90;5.40;;;;;;;17.65;41.68;98545.68;1710404;83;21026;-68
2022/04/08 11:14:11;;;;;;;13.53;6.47;;;;;;;17.43;42.19;98547.89;1680173;83;21269;-67
2022/04/08 11:16:40;;;;;;;10.60;5.20;;;;;;;17.32;42.63;98552.28;1687379;84;21087;-67
2022/04/08 11:19:10;;;;;;;10.77;5.73;;;;;;;17.18;42.92;98556.00;1702308;83;21025;-67
2022/04/08 11:21:38;;;;;;;11.23;5.97;;;;;;;17.02;43.18;98556.78;1688024;82;21094;-67
2022/04/08 11:24:19;;;;;;;10.93;6.07;;;;;;;16.87;43.64;98548.12;1695101;82;21050;-68
2022/04/08 11:26:51;;;;;;;11.85;7.20;;;;;;;16.73;44.33;98549.87;1703014;82;21318;-67
2022/04/08 11:29:22;;;;;;;10.77;7.73;;;;;;;16.44;46.89;98556.42;1696335;82;21091;-67
2022/04/08 11:31:51;;;;;;;12.40;7.53;;;;;;;16.44;46.89;98556.42;1713501;83;21092;-68
2022/04/08 11:34:19;;;;;;;9.40;5.77;;;;;;;16.33;47.92;98589.04;1685803;84;21074;-67
2022/04/08 11:36:46;;;;;;;18.03;9.17;;;;;;;16.20;47.86;98568.66;1709540;83;21010;-68
2022/04/08 11:39:20;;;;;;;31.17;19.00;;;;;;;16.08;47.90;98582.38;1687615;83;21740;-68